sensor_id;sensor_type;location;lat;lon;timestamp;temperature;humidity
78054;DHT22;67726;45.636;11.752;2024-03-08T00:01:48;9.10;99.90
78054;DHT22;67726;45.636;11.752;2024-03-08T00:04:14;9.20;99.90
78054;DHT22;67726;45.636;11.752;2024-03-08T00:06:41;9.20;99.90
78054;DHT22;67726;45.636;11.752;2024-03-08T00:09:07;9.10;99.90
78054;DHT22;67726;45.636;11.752;2024-03-08T00:11:34;9.10;99.90
78054;DHT22;67726;45.636;11.752;2024-03-08T00:14:00;9.00;99.90
78054;DHT22;67726;45.636;11.752;2024-03-08T00:16:26;9.10;99.90
78054;DHT22;67726;45.636;11.752;2024-03-08T00:18:51;9.00;99.90
78054;DHT22;67726;45.636;11.752;2024-03-08T00:21:17;9.10;99.90
78054;DHT22;67726;45.636;11.752;2024-03-08T00:23:42;9.10;99.90
78054;DHT22;67726;45.636;11.752;2024-03-08T00:26:08;9.10;99.90
78054;DHT22;67726;45.636;11.752;2024-03-08T00:28:34;9.00;99.90
78054;DHT22;67726;45.636;11.752;2024-03-08T00:31:00;9.00;99.90
78054;DHT22;67726;45.636;11.752;2024-03-08T00:33:26;9.00;99.90
78054;DHT22;67726;45.636;11.752;2024-03-08T00:35:56;9.10;99.90
78054;DHT22;67726;45.636;11.752;2024-03-08T00:38:22;9.10;99.90
78054;DHT22;67726;45.636;11.752;2024-03-08T00:40:48;9.10;99.90
78054;DHT22;67726;45.636;11.752;2024-03-08T00:43:13;9.00;99.90
78054;DHT22;67726;45.636;11.752;2024-03-08T00:45:41;9.10;99.90
78054;DHT22;67726;45.636;11.752;2024-03-08T00:48:09;8.90;99.90
78054;DHT22;67726;45.636;11.752;2024-03-08T00:50:36;9.10;99.90
78054;DHT22;67726;45.636;11.752;2024-03-08T00:53:02;9.10;99.90
78054;DHT22;67726;45.636;11.752;2024-03-08T00:55:28;9.10;99.90
78054;DHT22;67726;45.636;11.752;2024-03-08T00:57:55;9.00;99.90
78054;DHT22;67726;45.636;11.752;2024-03-08T01:00:20;9.10;99.90
78054;DHT22;67726;45.636;11.752;2024-03-08T01:02:47;9.10;99.90
78054;DHT22;67726;45.636;11.752;2024-03-08T01:05:13;9.10;99.90
78054;DHT22;67726;45.636;11.752;2024-03-08T01:07:38;9.10;99.90
78054;DHT22;67726;45.636;11.752;2024-03-08T01:10:04;9.10;99.90
78054;DHT22;67726;45.636;11.752;2024-03-08T01:12:34;9.20;99.90
78054;DHT22;67726;45.636;11.752;2024-03-08T01:15:00;9.10;99.90
78054;DHT22;67726;45.636;11.752;2024-03-08T01:17:26;9.20;99.90
78054;DHT22;67726;45.636;11.752;2024-03-08T01:19:52;9.00;99.90
78054;DHT22;67726;45.636;11.752;2024-03-08T01:22:19;9.10;99.90
78054;DHT22;67726;45.636;11.752;2024-03-08T01:24:44;9.20;99.90
78054;DHT22;67726;45.636;11.752;2024-03-08T01:27:10;9.10;99.90
78054;DHT22;67726;45.636;11.752;2024-03-08T01:29:37;9.20;99.90
78054;DHT22;67726;45.636;11.752;2024-03-08T01:32:03;9.20;99.90
78054;DHT22;67726;45.636;11.752;2024-03-08T01:34:29;9.20;99.90
78054;DHT22;67726;45.636;11.752;2024-03-08T01:36:55;9.10;99.90
78054;DHT22;67726;45.636;11.752;2024-03-08T01:39:23;9.10;99.90
78054;DHT22;67726;45.636;11.752;2024-03-08T01:41:49;9.20;99.90
78054;DHT22;67726;45.636;11.752;2024-03-08T01:44:15;9.20;99.90
78054;DHT22;67726;45.636;11.752;2024-03-08T01:46:44;9.20;99.90
78054;DHT22;67726;45.636;11.752;2024-03-08T01:49:11;9.20;99.90
78054;DHT22;67726;45.636;11.752;2024-03-08T01:51:39;9.20;99.90
78054;DHT22;67726;45.636;11.752;2024-03-08T01:54:05;9.10;99.90
78054;DHT22;67726;45.636;11.752;2024-03-08T01:56:32;9.10;99.90
78054;DHT22;67726;45.636;11.752;2024-03-08T01:58:59;9.10;99.90
78054;DHT22;67726;45.636;11.752;2024-03-08T02:01:25;8.90;99.90
78054;DHT22;67726;45.636;11.752;2024-03-08T02:03:51;9.00;99.90
78054;DHT22;67726;45.636;11.752;2024-03-08T02:06:16;9.00;99.90
78054;DHT22;67726;45.636;11.752;2024-03-08T02:08:43;8.90;99.90
78054;DHT22;67726;45.636;11.752;2024-03-08T02:11:12;9.00;99.90
78054;DHT22;67726;45.636;11.752;2024-03-08T02:13:38;9.00;99.90
78054;DHT22;67726;45.636;11.752;2024-03-08T02:16:04;9.10;99.90
78054;DHT22;67726;45.636;11.752;2024-03-08T02:18:33;8.90;99.90
78054;DHT22;67726;45.636;11.752;2024-03-08T02:21:01;9.00;99.90
78054;DHT22;67726;45.636;11.752;2024-03-08T02:23:28;8.90;99.90
78054;DHT22;67726;45.636;11.752;2024-03-08T02:25:55;8.90;99.90
78054;DHT22;67726;45.636;11.752;2024-03-08T02:28:22;9.10;99.90
78054;DHT22;67726;45.636;11.752;2024-03-08T02:30:48;9.10;99.90
78054;DHT22;67726;45.636;11.752;2024-03-08T02:33:15;8.90;99.90
78054;DHT22;67726;45.636;11.752;2024-03-08T02:35:45;8.90;99.90
78054;DHT22;67726;45.636;11.752;2024-03-08T02:38:18;9.00;99.90
78054;DHT22;67726;45.636;11.752;2024-03-08T02:40:53;9.00;99.90
78054;DHT22;67726;45.636;11.752;2024-03-08T02:43:20;9.00;99.90
78054;DHT22;67726;45.636;11.752;2024-03-08T02:45:47;8.90;99.90
78054;DHT22;67726;45.636;11.752;2024-03-08T02:48:14;9.00;99.90
78054;DHT22;67726;45.636;11.752;2024-03-08T02:50:41;9.00;99.90
78054;DHT22;67726;45.636;11.752;2024-03-08T02:53:11;8.90;99.90
78054;DHT22;67726;45.636;11.752;2024-03-08T02:55:40;9.00;99.90
78054;DHT22;67726;45.636;11.752;2024-03-08T02:58:07;9.00;99.90
78054;DHT22;67726;45.636;11.752;2024-03-08T03:00:38;8.90;99.90
78054;DHT22;67726;45.636;11.752;2024-03-08T03:03:05;8.90;99.90
78054;DHT22;67726;45.636;11.752;2024-03-08T03:05:31;9.00;99.90
78054;DHT22;67726;45.636;11.752;2024-03-08T03:07:57;8.80;99.90
78054;DHT22;67726;45.636;11.752;2024-03-08T03:10:24;8.80;99.90
78054;DHT22;67726;45.636;11.752;2024-03-08T03:12:49;9.00;99.90
78054;DHT22;67726;45.636;11.752;2024-03-08T03:15:15;8.90;99.90
78054;DHT22;67726;45.636;11.752;2024-03-08T03:17:50;8.90;99.90
78054;DHT22;67726;45.636;11.752;2024-03-08T03:20:19;8.80;99.90
78054;DHT22;67726;45.636;11.752;2024-03-08T03:22:58;8.90;99.90
78054;DHT22;67726;45.636;11.752;2024-03-08T03:25:26;8.80;99.90
78054;DHT22;67726;45.636;11.752;2024-03-08T03:27:58;8.90;99.90
78054;DHT22;67726;45.636;11.752;2024-03-08T03:30:24;8.90;99.90
78054;DHT22;67726;45.636;11.752;2024-03-08T03:32:52;8.80;99.90
78054;DHT22;67726;45.636;11.752;2024-03-08T03:35:20;8.80;99.90
78054;DHT22;67726;45.636;11.752;2024-03-08T03:37:46;8.90;99.90
78054;DHT22;67726;45.636;11.752;2024-03-08T03:40:30;8.80;99.90
78054;DHT22;67726;45.636;11.752;2024-03-08T03:42:56;8.80;99.90
78054;DHT22;67726;45.636;11.752;2024-03-08T03:45:25;8.70;99.90
78054;DHT22;67726;45.636;11.752;2024-03-08T03:47:51;8.80;99.90
78054;DHT22;67726;45.636;11.752;2024-03-08T03:50:18;8.70;99.90
78054;DHT22;67726;45.636;11.752;2024-03-08T03:52:48;8.70;99.90
78054;DHT22;67726;45.636;11.752;2024-03-08T03:55:14;8.70;99.90
78054;DHT22;67726;45.636;11.752;2024-03-08T03:57:40;8.60;99.90
78054;DHT22;67726;45.636;11.752;2024-03-08T04:00:06;8.60;99.90
78054;DHT22;67726;45.636;11.752;2024-03-08T04:02:39;8.50;99.90
78054;DHT22;67726;45.636;11.752;2024-03-08T04:05:09;8.40;99.90
78054;DHT22;67726;45.636;11.752;2024-03-08T04:07:35;8.30;99.90
78054;DHT22;67726;45.636;11.752;2024-03-08T04:10:05;8.40;99.90
78054;DHT22;67726;45.636;11.752;2024-03-08T04:12:34;8.30;99.90
78054;DHT22;67726;45.636;11.752;2024-03-08T04:15:00;8.40;99.90
78054;DHT22;67726;45.636;11.752;2024-03-08T04:17:26;8.30;99.90
78054;DHT22;67726;45.636;11.752;2024-03-08T04:19:52;8.20;99.90
78054;DHT22;67726;45.636;11.752;2024-03-08T04:22:18;8.30;99.90
78054;DHT22;67726;45.636;11.752;2024-03-08T04:24:45;8.30;99.90
78054;DHT22;67726;45.636;11.752;2024-03-08T04:27:11;8.20;99.90
78054;DHT22;67726;45.636;11.752;2024-03-08T04:29:37;8.20;99.90
78054;DHT22;67726;45.636;11.752;2024-03-08T04:32:04;8.10;99.90
78054;DHT22;67726;45.636;11.752;2024-03-08T04:34:30;8.10;99.90
78054;DHT22;67726;45.636;11.752;2024-03-08T04:36:59;7.90;99.90
78054;DHT22;67726;45.636;11.752;2024-03-08T04:39:25;8.10;99.90
78054;DHT22;67726;45.636;11.752;2024-03-08T04:41:54;8.10;99.90
78054;DHT22;67726;45.636;11.752;2024-03-08T04:44:20;8.10;99.90
78054;DHT22;67726;45.636;11.752;2024-03-08T04:46:45;8.10;99.90
78054;DHT22;67726;45.636;11.752;2024-03-08T04:49:12;8.10;99.90
78054;DHT22;67726;45.636;11.752;2024-03-08T04:51:38;7.90;99.90
78054;DHT22;67726;45.636;11.752;2024-03-08T04:54:04;8.10;99.90
78054;DHT22;67726;45.636;11.752;2024-03-08T04:56:32;8.00;99.90
78054;DHT22;67726;45.636;11.752;2024-03-08T04:58:59;8.10;99.90
78054;DHT22;67726;45.636;11.752;2024-03-08T05:01:24;8.10;99.90
78054;DHT22;67726;45.636;11.752;2024-03-08T05:03:50;8.00;99.90
78054;DHT22;67726;45.636;11.752;2024-03-08T05:06:16;8.10;99.90
78054;DHT22;67726;45.636;11.752;2024-03-08T05:08:42;8.10;99.90
78054;DHT22;67726;45.636;11.752;2024-03-08T05:11:08;8.10;99.90
78054;DHT22;67726;45.636;11.752;2024-03-08T05:13:33;8.20;99.90
78054;DHT22;67726;45.636;11.752;2024-03-08T05:16:00;8.00;99.90
78054;DHT22;67726;45.636;11.752;2024-03-08T05:18:25;8.20;99.90
78054;DHT22;67726;45.636;11.752;2024-03-08T05:20:53;8.20;99.90
78054;DHT22;67726;45.636;11.752;2024-03-08T05:23:19;8.10;99.90
78054;DHT22;67726;45.636;11.752;2024-03-08T05:25:45;8.20;99.90
78054;DHT22;67726;45.636;11.752;2024-03-08T05:28:12;8.30;99.90
78054;DHT22;67726;45.636;11.752;2024-03-08T05:30:38;8.20;99.90
78054;DHT22;67726;45.636;11.752;2024-03-08T05:33:04;8.30;99.90
78054;DHT22;67726;45.636;11.752;2024-03-08T05:35:30;8.20;99.90
78054;DHT22;67726;45.636;11.752;2024-03-08T05:37:56;8.30;99.90
78054;DHT22;67726;45.636;11.752;2024-03-08T05:40:23;8.30;99.90
78054;DHT22;67726;45.636;11.752;2024-03-08T05:42:49;8.30;99.90
78054;DHT22;67726;45.636;11.752;2024-03-08T05:45:15;8.30;99.90
78054;DHT22;67726;45.636;11.752;2024-03-08T05:47:41;8.30;99.90
78054;DHT22;67726;45.636;11.752;2024-03-08T05:50:07;8.30;99.90
78054;DHT22;67726;45.636;11.752;2024-03-08T05:52:36;8.30;99.90
78054;DHT22;67726;45.636;11.752;2024-03-08T05:55:03;8.30;99.90
78054;DHT22;67726;45.636;11.752;2024-03-08T05:57:32;8.10;99.90
78054;DHT22;67726;45.636;11.752;2024-03-08T05:59:58;8.30;99.90
78054;DHT22;67726;45.636;11.752;2024-03-08T06:02:23;8.20;99.90
78054;DHT22;67726;45.636;11.752;2024-03-08T06:04:49;8.20;99.90
78054;DHT22;67726;45.636;11.752;2024-03-08T06:07:15;8.20;99.90
78054;DHT22;67726;45.636;11.752;2024-03-08T06:09:43;8.30;99.90
78054;DHT22;67726;45.636;11.752;2024-03-08T06:12:11;8.20;99.90
78054;DHT22;67726;45.636;11.752;2024-03-08T06:14:37;8.20;99.90
78054;DHT22;67726;45.636;11.752;2024-03-08T06:17:03;8.20;99.90
78054;DHT22;67726;45.636;11.752;2024-03-08T06:19:31;8.20;99.90
78054;DHT22;67726;45.636;11.752;2024-03-08T06:21:57;8.20;99.90
78054;DHT22;67726;45.636;11.752;2024-03-08T06:24:22;8.10;99.90
78054;DHT22;67726;45.636;11.752;2024-03-08T06:26:48;8.20;99.90
78054;DHT22;67726;45.636;11.752;2024-03-08T06:29:14;8.20;99.90
78054;DHT22;67726;45.636;11.752;2024-03-08T06:31:40;8.20;99.90
78054;DHT22;67726;45.636;11.752;2024-03-08T06:34:06;8.10;99.90
78054;DHT22;67726;45.636;11.752;2024-03-08T06:36:33;8.10;99.90
78054;DHT22;67726;45.636;11.752;2024-03-08T06:38:59;8.10;99.90
78054;DHT22;67726;45.636;11.752;2024-03-08T06:41:24;8.10;99.90
78054;DHT22;67726;45.636;11.752;2024-03-08T06:47:31;8.10;99.90
78054;DHT22;67726;45.636;11.752;2024-03-08T06:49:57;8.20;99.90
78054;DHT22;67726;45.636;11.752;2024-03-08T06:52:23;8.20;99.90
78054;DHT22;67726;45.636;11.752;2024-03-08T06:54:48;8.20;99.90
78054;DHT22;67726;45.636;11.752;2024-03-08T06:57:14;8.20;99.90
78054;DHT22;67726;45.636;11.752;2024-03-08T06:59:42;8.20;99.90
78054;DHT22;67726;45.636;11.752;2024-03-08T07:02:07;8.20;99.90
78054;DHT22;67726;45.636;11.752;2024-03-08T07:04:35;8.30;99.90
78054;DHT22;67726;45.636;11.752;2024-03-08T07:07:06;8.20;99.90
78054;DHT22;67726;45.636;11.752;2024-03-08T07:09:38;8.30;99.90
78054;DHT22;67726;45.636;11.752;2024-03-08T07:12:04;8.30;99.90
78054;DHT22;67726;45.636;11.752;2024-03-08T07:14:30;8.30;99.90
78054;DHT22;67726;45.636;11.752;2024-03-08T07:16:56;8.20;99.90
78054;DHT22;67726;45.636;11.752;2024-03-08T07:19:22;8.40;99.90
78054;DHT22;67726;45.636;11.752;2024-03-08T07:21:49;8.20;99.90
78054;DHT22;67726;45.636;11.752;2024-03-08T07:24:14;8.30;99.90
78054;DHT22;67726;45.636;11.752;2024-03-08T07:26:46;8.30;99.90
78054;DHT22;67726;45.636;11.752;2024-03-08T07:29:15;8.30;99.90
78054;DHT22;67726;45.636;11.752;2024-03-08T07:31:41;8.30;99.90
78054;DHT22;67726;45.636;11.752;2024-03-08T07:34:07;8.20;99.90
78054;DHT22;67726;45.636;11.752;2024-03-08T07:36:33;8.30;99.90
78054;DHT22;67726;45.636;11.752;2024-03-08T07:39:00;8.10;99.90
78054;DHT22;67726;45.636;11.752;2024-03-08T07:41:26;8.10;99.90
78054;DHT22;67726;45.636;11.752;2024-03-08T07:43:51;8.20;99.90
78054;DHT22;67726;45.636;11.752;2024-03-08T07:46:17;8.20;99.90
78054;DHT22;67726;45.636;11.752;2024-03-08T07:48:44;8.10;99.90
78054;DHT22;67726;45.636;11.752;2024-03-08T07:51:10;8.10;99.90
78054;DHT22;67726;45.636;11.752;2024-03-08T07:53:37;8.10;99.90
78054;DHT22;67726;45.636;11.752;2024-03-08T07:56:04;8.10;99.90
78054;DHT22;67726;45.636;11.752;2024-03-08T07:58:30;8.20;99.90
78054;DHT22;67726;45.636;11.752;2024-03-08T08:00:56;8.10;99.90
78054;DHT22;67726;45.636;11.752;2024-03-08T08:03:21;8.20;99.90
78054;DHT22;67726;45.636;11.752;2024-03-08T08:05:47;8.20;99.90
78054;DHT22;67726;45.636;11.752;2024-03-08T08:08:14;8.30;99.90
78054;DHT22;67726;45.636;11.752;2024-03-08T08:10:40;8.10;99.90
78054;DHT22;67726;45.636;11.752;2024-03-08T08:13:06;8.30;99.90
78054;DHT22;67726;45.636;11.752;2024-03-08T08:15:32;8.20;99.90
78054;DHT22;67726;45.636;11.752;2024-03-08T08:18:01;8.10;99.90
78054;DHT22;67726;45.636;11.752;2024-03-08T08:20:28;8.10;99.90
78054;DHT22;67726;45.636;11.752;2024-03-08T08:22:54;8.20;99.90
78054;DHT22;67726;45.636;11.752;2024-03-08T08:25:20;8.30;99.90
78054;DHT22;67726;45.636;11.752;2024-03-08T08:27:48;8.20;99.90
78054;DHT22;67726;45.636;11.752;2024-03-08T08:30:14;8.40;99.90
78054;DHT22;67726;45.636;11.752;2024-03-08T08:32:39;8.30;99.90
78054;DHT22;67726;45.636;11.752;2024-03-08T08:35:07;8.30;99.90
78054;DHT22;67726;45.636;11.752;2024-03-08T08:37:38;8.30;99.90
78054;DHT22;67726;45.636;11.752;2024-03-08T08:40:05;8.40;99.90
78054;DHT22;67726;45.636;11.752;2024-03-08T08:42:40;8.50;99.90
78054;DHT22;67726;45.636;11.752;2024-03-08T08:45:07;8.30;99.90
78054;DHT22;67726;45.636;11.752;2024-03-08T08:47:35;8.30;99.90
78054;DHT22;67726;45.636;11.752;2024-03-08T08:50:02;8.30;99.90
78054;DHT22;67726;45.636;11.752;2024-03-08T08:52:29;8.30;99.90
78054;DHT22;67726;45.636;11.752;2024-03-08T08:54:55;8.40;99.90
78054;DHT22;67726;45.636;11.752;2024-03-08T08:57:20;8.30;99.90
78054;DHT22;67726;45.636;11.752;2024-03-08T08:59:46;8.40;99.90
78054;DHT22;67726;45.636;11.752;2024-03-08T09:02:11;8.50;99.90
78054;DHT22;67726;45.636;11.752;2024-03-08T09:04:38;8.40;99.90
78054;DHT22;67726;45.636;11.752;2024-03-08T09:07:04;8.50;99.90
78054;DHT22;67726;45.636;11.752;2024-03-08T09:09:32;8.40;99.90
78054;DHT22;67726;45.636;11.752;2024-03-08T09:11:58;8.50;99.90
78054;DHT22;67726;45.636;11.752;2024-03-08T09:14:23;8.40;99.90
78054;DHT22;67726;45.636;11.752;2024-03-08T09:16:51;8.40;99.90
78054;DHT22;67726;45.636;11.752;2024-03-08T09:19:17;8.30;99.90
78054;DHT22;67726;45.636;11.752;2024-03-08T09:21:44;8.30;99.90
78054;DHT22;67726;45.636;11.752;2024-03-08T09:24:10;8.30;99.90
78054;DHT22;67726;45.636;11.752;2024-03-08T09:26:36;8.30;99.90
78054;DHT22;67726;45.636;11.752;2024-03-08T09:29:02;8.30;99.90
78054;DHT22;67726;45.636;11.752;2024-03-08T09:31:28;8.30;99.90
78054;DHT22;67726;45.636;11.752;2024-03-08T09:33:54;8.00;99.90
78054;DHT22;67726;45.636;11.752;2024-03-08T09:36:19;8.30;99.90
78054;DHT22;67726;45.636;11.752;2024-03-08T09:38:45;8.20;99.90
78054;DHT22;67726;45.636;11.752;2024-03-08T09:41:11;8.20;99.90
78054;DHT22;67726;45.636;11.752;2024-03-08T09:43:38;8.30;99.90
78054;DHT22;67726;45.636;11.752;2024-03-08T09:46:04;8.40;99.90
78054;DHT22;67726;45.636;11.752;2024-03-08T09:48:33;8.30;99.90
78054;DHT22;67726;45.636;11.752;2024-03-08T09:51:00;8.40;99.90
78054;DHT22;67726;45.636;11.752;2024-03-08T09:53:26;8.30;99.90
78054;DHT22;67726;45.636;11.752;2024-03-08T09:55:51;8.40;99.90
78054;DHT22;67726;45.636;11.752;2024-03-08T09:58:17;8.30;99.90
78054;DHT22;67726;45.636;11.752;2024-03-08T10:01:02;8.20;99.90
78054;DHT22;67726;45.636;11.752;2024-03-08T10:03:30;8.30;99.90
78054;DHT22;67726;45.636;11.752;2024-03-08T10:05:56;8.40;99.90
78054;DHT22;67726;45.636;11.752;2024-03-08T10:08:26;8.40;99.90
78054;DHT22;67726;45.636;11.752;2024-03-08T10:10:52;8.50;99.90
78054;DHT22;67726;45.636;11.752;2024-03-08T10:13:18;8.60;99.90
78054;DHT22;67726;45.636;11.752;2024-03-08T10:15:45;8.50;99.90
78054;DHT22;67726;45.636;11.752;2024-03-08T10:18:11;8.70;99.90
78054;DHT22;67726;45.636;11.752;2024-03-08T10:20:36;8.50;99.90
78054;DHT22;67726;45.636;11.752;2024-03-08T10:23:03;8.70;99.90
78054;DHT22;67726;45.636;11.752;2024-03-08T10:25:34;8.80;99.90
78054;DHT22;67726;45.636;11.752;2024-03-08T10:28:00;8.80;99.90
78054;DHT22;67726;45.636;11.752;2024-03-08T10:30:29;8.80;99.90
78054;DHT22;67726;45.636;11.752;2024-03-08T10:32:55;8.80;99.90
78054;DHT22;67726;45.636;11.752;2024-03-08T10:35:20;8.80;99.90
78054;DHT22;67726;45.636;11.752;2024-03-08T10:37:48;9.00;99.90
78054;DHT22;67726;45.636;11.752;2024-03-08T10:40:19;9.00;99.90
78054;DHT22;67726;45.636;11.752;2024-03-08T10:42:59;9.00;99.90
78054;DHT22;67726;45.636;11.752;2024-03-08T10:48:26;8.90;99.90
78054;DHT22;67726;45.636;11.752;2024-03-08T10:50:59;8.90;99.90
78054;DHT22;67726;45.636;11.752;2024-03-08T10:53:28;8.90;99.90
78054;DHT22;67726;45.636;11.752;2024-03-08T10:55:57;9.00;99.90
78054;DHT22;67726;45.636;11.752;2024-03-08T10:58:25;8.90;99.90
78054;DHT22;67726;45.636;11.752;2024-03-08T11:00:55;8.90;99.90
78054;DHT22;67726;45.636;11.752;2024-03-08T11:06:19;9.00;99.90
78054;DHT22;67726;45.636;11.752;2024-03-08T11:08:48;9.00;99.90
78054;DHT22;67726;45.636;11.752;2024-03-08T11:13:53;8.90;99.90
78054;DHT22;67726;45.636;11.752;2024-03-08T11:21:43;8.90;99.90
78054;DHT22;67726;45.636;11.752;2024-03-08T11:24:11;8.90;99.90
78054;DHT22;67726;45.636;11.752;2024-03-08T11:26:39;9.00;99.90
78054;DHT22;67726;45.636;11.752;2024-03-08T11:32:12;9.00;99.90
78054;DHT22;67726;45.636;11.752;2024-03-08T11:34:49;8.90;99.90
78054;DHT22;67726;45.636;11.752;2024-03-08T11:37:19;8.90;99.90
78054;DHT22;67726;45.636;11.752;2024-03-08T11:39:54;8.80;99.90
78054;DHT22;67726;45.636;11.752;2024-03-08T11:42:24;8.70;99.90
78054;DHT22;67726;45.636;11.752;2024-03-08T11:44:52;8.60;99.90
78054;DHT22;67726;45.636;11.752;2024-03-08T11:47:18;8.50;99.90
78054;DHT22;67726;45.636;11.752;2024-03-08T11:49:45;8.40;99.90
78054;DHT22;67726;45.636;11.752;2024-03-08T11:52:14;8.40;99.90
78054;DHT22;67726;45.636;11.752;2024-03-08T11:54:40;8.30;99.90
78054;DHT22;67726;45.636;11.752;2024-03-08T11:57:06;8.30;99.90
78054;DHT22;67726;45.636;11.752;2024-03-08T11:59:32;8.30;99.90
78054;DHT22;67726;45.636;11.752;2024-03-08T12:02:05;8.20;99.90
78054;DHT22;67726;45.636;11.752;2024-03-08T12:04:31;8.10;99.90
78054;DHT22;67726;45.636;11.752;2024-03-08T12:07:00;8.20;99.90
78054;DHT22;67726;45.636;11.752;2024-03-08T12:09:36;8.20;99.90
78054;DHT22;67726;45.636;11.752;2024-03-08T12:12:03;8.30;99.90
78054;DHT22;67726;45.636;11.752;2024-03-08T12:14:33;8.00;99.90
78054;DHT22;67726;45.636;11.752;2024-03-08T12:16:59;8.10;99.90
78054;DHT22;67726;45.636;11.752;2024-03-08T12:19:27;8.20;99.90
78054;DHT22;67726;45.636;11.752;2024-03-08T12:21:54;8.10;99.90
78054;DHT22;67726;45.636;11.752;2024-03-08T12:24:20;8.10;99.90
78054;DHT22;67726;45.636;11.752;2024-03-08T12:26:47;8.10;99.90
78054;DHT22;67726;45.636;11.752;2024-03-08T12:29:26;8.00;99.90
78054;DHT22;67726;45.636;11.752;2024-03-08T12:31:59;8.00;99.90
78054;DHT22;67726;45.636;11.752;2024-03-08T12:34:26;8.10;99.90
78054;DHT22;67726;45.636;11.752;2024-03-08T12:36:54;8.10;99.90
78054;DHT22;67726;45.636;11.752;2024-03-08T12:39:21;8.10;99.90
78054;DHT22;67726;45.636;11.752;2024-03-08T12:41:52;8.10;99.90
78054;DHT22;67726;45.636;11.752;2024-03-08T12:44:19;8.20;99.90
78054;DHT22;67726;45.636;11.752;2024-03-08T12:46:47;8.20;99.90
78054;DHT22;67726;45.636;11.752;2024-03-08T12:49:14;8.10;99.90
78054;DHT22;67726;45.636;11.752;2024-03-08T12:51:46;8.20;99.90
78054;DHT22;67726;45.636;11.752;2024-03-08T12:54:12;8.20;99.90
78054;DHT22;67726;45.636;11.752;2024-03-08T12:56:38;8.30;99.90
78054;DHT22;67726;45.636;11.752;2024-03-08T12:59:06;8.20;99.90
78054;DHT22;67726;45.636;11.752;2024-03-08T13:01:33;8.10;99.90
78054;DHT22;67726;45.636;11.752;2024-03-08T13:03:59;8.20;99.90
78054;DHT22;67726;45.636;11.752;2024-03-08T13:06:27;8.40;99.90
78054;DHT22;67726;45.636;11.752;2024-03-08T13:08:54;8.40;99.90
78054;DHT22;67726;45.636;11.752;2024-03-08T13:11:51;8.40;99.90
78054;DHT22;67726;45.636;11.752;2024-03-08T13:14:17;8.50;99.90
78054;DHT22;67726;45.636;11.752;2024-03-08T13:16:42;8.60;99.90
78054;DHT22;67726;45.636;11.752;2024-03-08T13:19:13;8.60;99.90
78054;DHT22;67726;45.636;11.752;2024-03-08T13:21:39;8.70;99.90
78054;DHT22;67726;45.636;11.752;2024-03-08T13:24:05;8.80;99.90
78054;DHT22;67726;45.636;11.752;2024-03-08T13:26:31;8.90;99.90
78054;DHT22;67726;45.636;11.752;2024-03-08T13:28:58;9.00;99.90
78054;DHT22;67726;45.636;11.752;2024-03-08T13:31:24;9.00;99.90
78054;DHT22;67726;45.636;11.752;2024-03-08T13:33:49;9.00;99.90
78054;DHT22;67726;45.636;11.752;2024-03-08T13:36:17;9.10;99.90
78054;DHT22;67726;45.636;11.752;2024-03-08T13:38:47;8.90;99.90
78054;DHT22;67726;45.636;11.752;2024-03-08T13:41:14;8.70;99.90
78054;DHT22;67726;45.636;11.752;2024-03-08T13:43:46;9.00;99.90
78054;DHT22;67726;45.636;11.752;2024-03-08T13:46:15;8.90;99.90
78054;DHT22;67726;45.636;11.752;2024-03-08T13:48:41;9.00;99.90
78054;DHT22;67726;45.636;11.752;2024-03-08T13:51:07;9.00;99.90
78054;DHT22;67726;45.636;11.752;2024-03-08T13:53:35;9.10;99.90
78054;DHT22;67726;45.636;11.752;2024-03-08T13:56:04;8.90;99.90
78054;DHT22;67726;45.636;11.752;2024-03-08T13:58:30;9.00;99.90
78054;DHT22;67726;45.636;11.752;2024-03-08T14:00:56;9.00;99.90
78054;DHT22;67726;45.636;11.752;2024-03-08T14:03:22;9.00;99.90
78054;DHT22;67726;45.636;11.752;2024-03-08T14:05:49;9.10;99.90
78054;DHT22;67726;45.636;11.752;2024-03-08T14:08:15;8.90;99.90
78054;DHT22;67726;45.636;11.752;2024-03-08T14:10:43;9.00;99.90
78054;DHT22;67726;45.636;11.752;2024-03-08T14:13:08;9.10;99.90
78054;DHT22;67726;45.636;11.752;2024-03-08T14:15:34;9.20;99.90
78054;DHT22;67726;45.636;11.752;2024-03-08T14:18:01;9.30;99.90
78054;DHT22;67726;45.636;11.752;2024-03-08T14:20:32;9.40;99.90
78054;DHT22;67726;45.636;11.752;2024-03-08T14:22:57;9.40;99.90
78054;DHT22;67726;45.636;11.752;2024-03-08T14:25:23;9.50;99.90
78054;DHT22;67726;45.636;11.752;2024-03-08T14:27:50;9.60;99.90
78054;DHT22;67726;45.636;11.752;2024-03-08T14:30:19;9.60;99.90
78054;DHT22;67726;45.636;11.752;2024-03-08T14:33:04;9.60;99.90
78054;DHT22;67726;45.636;11.752;2024-03-08T14:35:37;9.60;99.90
78054;DHT22;67726;45.636;11.752;2024-03-08T14:38:03;9.50;99.90
78054;DHT22;67726;45.636;11.752;2024-03-08T14:40:29;9.40;99.90
78054;DHT22;67726;45.636;11.752;2024-03-08T14:42:56;9.20;99.90
78054;DHT22;67726;45.636;11.752;2024-03-08T14:45:22;9.10;99.90
78054;DHT22;67726;45.636;11.752;2024-03-08T14:47:50;9.10;99.90
78054;DHT22;67726;45.636;11.752;2024-03-08T14:50:19;9.00;99.90
78054;DHT22;67726;45.636;11.752;2024-03-08T14:52:45;8.90;99.90
78054;DHT22;67726;45.636;11.752;2024-03-08T14:55:20;8.90;99.90
78054;DHT22;67726;45.636;11.752;2024-03-08T14:57:50;8.90;99.90
78054;DHT22;67726;45.636;11.752;2024-03-08T15:00:20;8.90;99.90
78054;DHT22;67726;45.636;11.752;2024-03-08T15:02:55;8.90;99.90
78054;DHT22;67726;45.636;11.752;2024-03-08T15:05:22;8.90;99.90
78054;DHT22;67726;45.636;11.752;2024-03-08T15:07:54;8.90;99.90
78054;DHT22;67726;45.636;11.752;2024-03-08T15:10:20;9.00;99.90
78054;DHT22;67726;45.636;11.752;2024-03-08T15:12:48;9.00;99.90
78054;DHT22;67726;45.636;11.752;2024-03-08T15:15:14;9.10;99.90
78054;DHT22;67726;45.636;11.752;2024-03-08T15:17:44;9.20;99.90
78054;DHT22;67726;45.636;11.752;2024-03-08T15:20:13;9.10;99.90
78054;DHT22;67726;45.636;11.752;2024-03-08T15:22:51;9.20;99.90
78054;DHT22;67726;45.636;11.752;2024-03-08T15:25:21;9.30;99.90
78054;DHT22;67726;45.636;11.752;2024-03-08T15:27:54;9.20;99.90
78054;DHT22;67726;45.636;11.752;2024-03-08T15:30:20;9.20;99.90
78054;DHT22;67726;45.636;11.752;2024-03-08T15:32:51;9.20;99.90
78054;DHT22;67726;45.636;11.752;2024-03-08T15:35:22;9.20;99.90
78054;DHT22;67726;45.636;11.752;2024-03-08T15:37:48;9.30;99.90
78054;DHT22;67726;45.636;11.752;2024-03-08T15:40:14;9.20;99.90
78054;DHT22;67726;45.636;11.752;2024-03-08T15:45:20;9.10;99.90
78054;DHT22;67726;45.636;11.752;2024-03-08T15:47:45;9.10;99.90
78054;DHT22;67726;45.636;11.752;2024-03-08T15:50:11;9.30;99.90
78054;DHT22;67726;45.636;11.752;2024-03-08T15:52:38;9.20;99.90
78054;DHT22;67726;45.636;11.752;2024-03-08T15:55:07;9.40;99.90